createdAt,value
2023-02-01T00:02:07.192Z,-0.58
2023-02-01T00:04:33.736Z,-0.79
2023-02-01T00:07:00.259Z,-0.78
2023-02-01T00:09:26.751Z,-1.02
2023-02-01T00:11:53.486Z,-0.58
2023-02-01T00:14:19.944Z,-0.59
2023-02-01T00:16:46.361Z,-0.36
2023-02-01T00:19:14.050Z,-0.16
2023-02-01T00:21:40.523Z,-0.59
2023-02-01T00:24:07.229Z,-0.98
2023-02-01T00:26:38.190Z,-0.95
2023-02-01T00:29:05.785Z,-0.94
2023-02-01T00:31:32.501Z,-0.83
2023-02-01T00:33:59.130Z,-1.23
2023-02-01T00:36:25.552Z,-1.08
2023-02-01T00:38:52.019Z,-1.32
2023-02-01T00:41:19.580Z,-1.31
2023-02-01T00:43:46.532Z,-1.21
2023-02-01T00:46:14.160Z,-1.07
2023-02-01T00:48:41.048Z,-1.05
2023-02-01T00:51:09.101Z,-1.12
2023-02-01T00:53:35.620Z,-1.57
2023-02-01T00:56:02.178Z,-1.41
2023-02-01T00:58:29.127Z,-1.35
2023-02-01T01:01:10.642Z,-1.52
2023-02-01T01:03:38.746Z,-1.33
2023-02-01T01:06:06.922Z,-1.38
2023-02-01T01:08:33.719Z,-1.45
2023-02-01T01:11:04.568Z,-1.51
2023-02-01T01:13:31.063Z,-1.52
2023-02-01T01:15:57.603Z,-1.38
2023-02-01T01:18:24.068Z,-1.24
2023-02-01T01:20:50.520Z,-1.25
2023-02-01T01:23:16.957Z,-1.23
2023-02-01T01:25:43.505Z,-1.29
2023-02-01T01:28:09.919Z,-1.42
2023-02-01T01:30:36.523Z,-1.44
2023-02-01T01:33:03.584Z,-1.46
2023-02-01T01:35:31.434Z,-1.66
2023-02-01T01:37:58.169Z,-1.76
2023-02-01T01:40:24.801Z,-1.58
2023-02-01T01:42:54.680Z,-1.71
2023-02-01T01:45:29.034Z,-1.85
2023-02-01T01:48:10.928Z,-1.32
2023-02-01T01:50:40.560Z,-1.54
2023-02-01T01:53:08.660Z,-1.86
2023-02-01T01:55:37.946Z,-2.00
2023-02-01T01:58:10.371Z,-1.61
2023-02-01T02:00:37.810Z,-1.71
2023-02-01T02:03:30.867Z,-1.77
2023-02-01T02:05:59.866Z,-1.79
2023-02-01T02:08:27.467Z,-1.99
2023-02-01T02:11:00.588Z,-1.97
2023-02-01T02:13:38.411Z,-2.14
2023-02-01T02:16:11.742Z,-1.94
2023-02-01T02:18:49.139Z,-1.99
2023-02-01T02:21:35.222Z,-1.86
2023-02-01T02:24:13.915Z,-2.05
2023-02-01T02:26:47.711Z,-2.02
2023-02-01T02:29:26.321Z,-1.90
2023-02-01T02:32:05.047Z,-1.50
2023-02-01T02:34:45.211Z,-1.81
2023-02-01T02:37:11.839Z,-1.74
2023-02-01T02:39:41.476Z,-1.87
2023-02-01T02:42:36.269Z,-1.93
2023-02-01T02:45:29.449Z,-1.80
2023-02-01T02:48:02.583Z,-1.69
2023-02-01T02:50:55.399Z,-1.62
2023-02-01T02:53:44.578Z,-1.79
2023-02-01T02:56:30.517Z,-1.89
2023-02-01T02:59:17.656Z,-2.02
2023-02-01T03:02:02.862Z,-2.13
2023-02-01T03:04:29.641Z,-2.13
2023-02-01T03:06:56.283Z,-2.00
2023-02-01T03:09:22.760Z,-2.03
2023-02-01T03:12:10.558Z,-2.03
2023-02-01T03:14:37.526Z,-2.04
2023-02-01T03:17:07.682Z,-2.20
2023-02-01T03:19:37.363Z,-2.30
2023-02-01T03:22:09.408Z,-2.29
2023-02-01T03:24:56.162Z,-2.24
2023-02-01T03:27:24.781Z,-2.26
2023-02-01T03:30:02.618Z,-2.14
2023-02-01T03:32:29.548Z,-2.20
2023-02-01T03:34:56.524Z,-2.11
2023-02-01T03:37:25.934Z,-2.21
2023-02-01T03:40:03.716Z,-2.27
2023-02-01T03:42:38.099Z,-2.39
2023-02-01T03:45:13.776Z,-2.15
2023-02-01T03:47:46.258Z,-2.00
2023-02-01T03:50:16.683Z,-1.98
2023-02-01T03:52:45.101Z,-2.08
2023-02-01T03:55:15.506Z,-2.09
2023-02-01T03:57:45.191Z,-2.13
2023-02-01T04:00:19.117Z,-1.93
2023-02-01T04:02:45.675Z,-1.98
2023-02-01T04:05:12.614Z,-1.49
2023-02-01T04:07:44.951Z,-1.89
2023-02-01T04:10:12.202Z,-1.91
2023-02-01T04:12:38.648Z,-1.88
2023-02-01T04:15:05.442Z,-1.32
2023-02-01T04:17:31.937Z,-1.75
2023-02-01T04:19:58.407Z,-2.16
2023-02-01T04:22:24.924Z,-2.07
2023-02-01T04:24:51.384Z,-2.12
2023-02-01T04:27:17.832Z,-2.46
2023-02-01T04:29:46.140Z,-2.46
2023-02-01T04:32:12.675Z,-2.20
2023-02-01T04:34:39.208Z,-1.63
2023-02-01T04:37:05.705Z,-1.91
2023-02-01T04:39:32.181Z,-2.20
2023-02-01T04:41:58.621Z,-2.15
2023-02-01T04:44:25.327Z,-1.47
2023-02-01T04:46:51.936Z,-1.64
2023-02-01T04:49:18.385Z,-2.12
2023-02-01T04:51:44.924Z,-1.33
2023-02-01T04:54:14.503Z,-1.42
2023-02-01T04:56:41.431Z,-1.91
2023-02-01T04:59:07.916Z,-1.97
2023-02-01T05:01:34.430Z,-2.12
2023-02-01T05:04:00.879Z,-1.98
2023-02-01T05:06:27.399Z,-2.05
2023-02-01T05:08:55.650Z,-1.19
2023-02-01T05:11:40.657Z,-1.33
2023-02-01T05:14:07.254Z,-2.10
2023-02-01T05:16:33.717Z,-2.28
2023-02-01T05:19:00.176Z,-2.29
2023-02-01T05:21:26.745Z,-2.17
2023-02-01T05:24:13.717Z,-2.44
2023-02-01T05:26:41.563Z,-2.32
2023-02-01T05:29:08.752Z,-2.14
2023-02-01T05:31:35.450Z,-2.04
2023-02-01T05:34:02.080Z,-2.18
2023-02-01T05:36:28.550Z,-2.17
2023-02-01T05:38:55.143Z,-1.62
2023-02-01T05:41:21.947Z,-2.32
2023-02-01T05:43:48.403Z,-2.31
2023-02-01T05:46:14.982Z,-2.28
2023-02-01T05:48:41.617Z,-1.98
2023-02-01T05:51:08.522Z,-2.39
2023-02-01T05:53:34.984Z,-2.44
2023-02-01T05:56:01.663Z,-2.44
2023-02-01T06:00:54.593Z,-2.51
2023-02-01T06:03:21.154Z,-2.33
2023-02-01T06:05:48.668Z,-2.27
2023-02-01T06:08:15.295Z,-2.42
2023-02-01T06:10:41.814Z,-2.45
2023-02-01T06:13:08.484Z,-2.52
2023-02-01T06:15:35.424Z,-2.34
2023-02-01T06:18:02.007Z,-2.43
2023-02-01T06:20:28.602Z,-2.36
2023-02-01T06:22:55.083Z,-2.23
2023-02-01T06:25:22.292Z,-2.27
2023-02-01T06:27:49.233Z,-2.29
2023-02-01T06:30:15.771Z,-2.27
2023-02-01T06:32:43.387Z,-2.19
2023-02-01T06:35:17.016Z,-2.03
2023-02-01T06:37:44.335Z,-2.19
2023-02-01T06:40:11.104Z,-2.05
2023-02-01T06:42:37.560Z,-1.24
2023-02-01T06:45:04.256Z,-0.87
2023-02-01T06:47:30.829Z,-0.97
2023-02-01T06:49:57.266Z,-1.10
2023-02-01T06:52:23.767Z,-0.40
2023-02-01T06:54:50.180Z,-0.08
2023-02-01T06:57:16.622Z,0.29
2023-02-01T06:59:43.132Z,-0.12
2023-02-01T07:02:11.655Z,0.09
2023-02-01T07:04:38.558Z,0.13
2023-02-01T07:07:05.089Z,-0.02
2023-02-01T07:09:31.609Z,0.32
2023-02-01T07:11:58.022Z,1.35
2023-02-01T07:14:24.450Z,1.23
2023-02-01T07:16:51.823Z,1.77
2023-02-01T07:19:18.322Z,1.78
2023-02-01T07:21:44.760Z,2.30
2023-02-01T07:24:11.226Z,2.50
2023-02-01T07:26:37.718Z,3.28
2023-02-01T07:29:04.193Z,3.84
2023-02-01T07:31:30.700Z,4.17
2023-02-01T07:33:59.119Z,4.82
2023-02-01T07:36:25.680Z,4.67
2023-02-01T07:38:55.316Z,5.64
2023-02-01T07:41:22.969Z,5.72
2023-02-01T07:43:51.616Z,5.82
2023-02-01T07:46:18.185Z,5.14
2023-02-01T07:48:44.696Z,6.51
2023-02-01T07:51:12.709Z,6.43
2023-02-01T07:53:39.155Z,6.02
2023-02-01T07:56:11.056Z,5.52
2023-02-01T07:58:37.533Z,6.12
2023-02-01T08:01:30.125Z,7.64
2023-02-01T08:04:00.412Z,8.60
2023-02-01T08:06:27.769Z,8.55
2023-02-01T08:08:55.067Z,8.17
2023-02-01T08:11:22.738Z,9.61
2023-02-01T08:13:49.216Z,9.46
2023-02-01T08:16:16.796Z,9.26
2023-02-01T08:18:43.791Z,9.38
2023-02-01T08:21:12.078Z,8.72
2023-02-01T08:23:39.133Z,9.84
2023-02-01T08:26:11.530Z,10.33
2023-02-01T08:28:38.827Z,10.12
2023-02-01T08:31:06.249Z,10.01
2023-02-01T08:33:32.797Z,10.17
2023-02-01T08:36:01.174Z,9.33
2023-02-01T08:38:27.612Z,8.39
2023-02-01T08:40:54.090Z,8.51
2023-02-01T08:43:20.632Z,9.64
2023-02-01T08:45:47.285Z,10.27
2023-02-01T08:48:13.820Z,10.15
2023-02-01T08:50:40.317Z,10.31
2023-02-01T08:53:06.790Z,9.29
2023-02-01T08:55:33.313Z,9.58
2023-02-01T08:57:59.865Z,9.63
2023-02-01T09:00:26.561Z,9.07
2023-02-01T09:02:53.102Z,8.21
2023-02-01T09:05:23.113Z,8.36
2023-02-01T09:07:49.822Z,8.71
2023-02-01T09:10:18.892Z,9.50
2023-02-01T09:12:47.464Z,10.63
2023-02-01T09:15:13.919Z,9.27
2023-02-01T09:17:42.716Z,9.17
2023-02-01T09:20:10.013Z,9.14
2023-02-01T09:22:36.471Z,9.36
2023-02-01T09:25:03.087Z,9.04
2023-02-01T09:27:29.624Z,8.37
2023-02-01T09:29:56.125Z,7.94
2023-02-01T09:32:23.879Z,9.28
2023-02-01T09:34:50.936Z,10.53
2023-02-01T09:37:17.376Z,10.36
2023-02-01T09:39:44.075Z,10.43
2023-02-01T09:42:19.763Z,10.15
2023-02-01T09:44:56.502Z,10.27
2023-02-01T09:47:24.357Z,10.02
2023-02-01T09:49:56.619Z,9.58
2023-02-01T09:52:28.813Z,10.16
2023-02-01T09:55:01.709Z,10.91
2023-02-01T09:57:50.431Z,10.81
2023-02-01T10:00:28.277Z,11.25
2023-02-01T10:02:55.849Z,11.75
2023-02-01T10:05:41.066Z,11.46
2023-02-01T10:08:16.732Z,10.63
2023-02-01T10:10:50.488Z,11.42
2023-02-01T10:13:28.600Z,11.90
2023-02-01T10:16:18.859Z,11.51
2023-02-01T10:18:45.435Z,12.12
2023-02-01T10:21:19.467Z,12.40
2023-02-01T10:24:16.807Z,12.37
2023-02-01T10:26:46.077Z,14.20
2023-02-01T10:29:17.490Z,14.56
2023-02-01T10:31:44.270Z,14.13
2023-02-01T10:34:16.756Z,12.45
2023-02-01T10:36:46.892Z,11.99
2023-02-01T10:39:15.277Z,12.42
2023-02-01T10:41:41.818Z,12.24
2023-02-01T10:44:16.924Z,13.02
2023-02-01T10:46:43.531Z,12.55
2023-02-01T10:49:14.682Z,13.48
2023-02-01T10:51:48.250Z,14.05
2023-02-01T10:54:21.350Z,14.40
2023-02-01T10:56:48.614Z,14.09
2023-02-01T10:59:16.366Z,14.28
2023-02-01T11:01:46.204Z,14.07
2023-02-01T11:04:14.687Z,15.20
2023-02-01T11:06:42.604Z,14.33
2023-02-01T11:09:09.088Z,13.98
2023-02-01T11:11:54.563Z,13.63
2023-02-01T11:14:26.816Z,13.71
2023-02-01T11:16:58.915Z,14.54
2023-02-01T11:19:25.350Z,15.08
2023-02-01T11:21:52.635Z,14.64
2023-02-01T11:24:21.884Z,14.77
2023-02-01T11:26:48.509Z,14.96
2023-02-01T11:29:18.667Z,14.37
2023-02-01T11:31:46.156Z,13.58
2023-02-01T11:34:17.314Z,14.68
2023-02-01T11:36:46.196Z,14.94
2023-02-01T11:39:15.671Z,13.84
2023-02-01T11:41:43.711Z,15.03
2023-02-01T11:44:24.564Z,15.90
2023-02-01T11:46:51.137Z,16.16
2023-02-01T11:49:25.224Z,16.59
2023-02-01T11:51:57.832Z,17.05
2023-02-01T11:54:38.625Z,15.70
2023-02-01T11:57:12.867Z,15.11
2023-02-01T11:59:56.835Z,15.94
2023-02-01T12:02:46.621Z,17.20
2023-02-01T12:05:20.480Z,16.97
2023-02-01T12:07:53.085Z,16.68
2023-02-01T12:10:38.267Z,17.27
2023-02-01T12:13:23.245Z,16.25
2023-02-01T12:15:57.035Z,16.86
2023-02-01T12:18:42.216Z,18.18
2023-02-01T12:21:23.474Z,18.42
2023-02-01T12:24:12.907Z,18.01
2023-02-01T12:26:49.172Z,17.08
2023-02-01T12:29:34.450Z,15.98
2023-02-01T12:32:19.410Z,17.04
2023-02-01T12:34:59.525Z,16.83
2023-02-01T12:37:56.552Z,17.70
2023-02-01T12:40:29.568Z,17.29
2023-02-01T12:43:05.478Z,15.54
2023-02-01T12:45:34.807Z,16.25
2023-02-01T12:48:06.957Z,17.10
2023-02-01T12:51:02.955Z,17.44
2023-02-01T12:53:49.644Z,16.36
2023-02-01T12:56:20.220Z,16.95
2023-02-01T12:58:51.952Z,16.45
2023-02-01T13:01:22.596Z,16.06
2023-02-01T13:03:58.635Z,16.77
2023-02-01T13:06:28.607Z,17.11
2023-02-01T13:09:01.163Z,17.44
2023-02-01T13:11:41.387Z,16.96
2023-02-01T13:14:26.641Z,16.80
2023-02-01T13:16:57.377Z,15.68
2023-02-01T13:19:27.333Z,15.80
2023-02-01T13:21:57.101Z,16.98
2023-02-01T13:24:28.758Z,16.89
2023-02-01T13:26:56.263Z,16.28
2023-02-01T13:29:24.766Z,15.87
2023-02-01T13:32:02.263Z,15.60
2023-02-01T13:34:31.997Z,15.98
2023-02-01T13:37:17.246Z,16.26
2023-02-01T13:39:50.475Z,16.49
2023-02-01T13:42:19.795Z,15.54
2023-02-01T13:45:06.529Z,14.94
2023-02-01T13:47:35.152Z,15.17
2023-02-01T13:50:04.560Z,14.99
2023-02-01T13:52:45.159Z,15.08
2023-02-01T13:55:21.092Z,14.73
2023-02-01T13:57:49.066Z,15.79
2023-02-01T14:00:34.108Z,16.14
2023-02-01T14:03:01.804Z,16.10
2023-02-01T14:05:28.226Z,15.97
2023-02-01T14:08:06.910Z,16.09
2023-02-01T14:10:45.822Z,16.03
2023-02-01T14:13:27.480Z,16.21
2023-02-01T14:16:14.294Z,15.04
2023-02-01T14:18:46.434Z,15.54
2023-02-01T14:21:22.834Z,15.49
2023-02-01T14:24:05.257Z,15.40
2023-02-01T14:26:34.540Z,15.40
2023-02-01T14:29:20.762Z,15.28
2023-02-01T14:31:47.750Z,14.58
2023-02-01T14:34:17.485Z,14.74
2023-02-01T14:36:45.567Z,14.64
2023-02-01T14:39:23.604Z,14.63
2023-02-01T14:41:53.839Z,14.34
2023-02-01T14:44:30.689Z,14.29
2023-02-01T14:47:11.522Z,14.12
2023-02-01T14:49:48.072Z,13.73
2023-02-01T14:52:16.975Z,13.15
2023-02-01T14:54:45.825Z,12.78
2023-02-01T14:57:19.097Z,12.56
2023-02-01T14:59:46.332Z,12.24
2023-02-01T15:02:22.539Z,12.53
2023-02-01T15:04:54.229Z,12.27
2023-02-01T15:07:22.075Z,12.20
2023-02-01T15:09:49.749Z,12.38
2023-02-01T15:12:27.891Z,11.72
2023-02-01T15:15:10.616Z,11.20
2023-02-01T15:17:37.059Z,11.03
2023-02-01T15:20:16.240Z,11.30
2023-02-01T15:22:53.317Z,11.45
2023-02-01T15:25:21.757Z,11.09
2023-02-01T15:27:48.630Z,11.01
2023-02-01T15:30:20.227Z,10.85
2023-02-01T15:32:46.983Z,10.77
2023-02-01T15:35:32.383Z,11.37
2023-02-01T15:38:17.632Z,10.87
2023-02-01T15:41:14.422Z,10.63
2023-02-01T15:43:56.060Z,10.45
2023-02-01T15:46:23.694Z,9.86
2023-02-01T15:48:52.023Z,10.09
2023-02-01T15:51:30.405Z,9.85
2023-02-01T15:53:56.871Z,9.85
2023-02-01T15:56:25.239Z,10.13
2023-02-01T15:58:53.407Z,9.91
2023-02-01T16:01:20.673Z,10.65
2023-02-01T16:03:49.442Z,9.83
2023-02-01T16:06:21.971Z,9.37
2023-02-01T16:08:53.101Z,9.55
2023-02-01T16:11:24.742Z,9.40
2023-02-01T16:13:51.422Z,9.40
2023-02-01T16:16:18.275Z,9.23
2023-02-01T16:18:45.629Z,9.06
2023-02-01T16:21:12.405Z,8.92
2023-02-01T16:23:38.880Z,9.06
2023-02-01T16:26:06.819Z,8.96
2023-02-01T16:28:33.742Z,8.87
2023-02-01T16:31:00.878Z,9.02
2023-02-01T16:33:27.820Z,8.95
2023-02-01T16:35:58.123Z,9.00
2023-02-01T16:38:24.787Z,8.89
2023-02-01T16:40:51.458Z,8.67
2023-02-01T16:43:24.997Z,8.79
2023-02-01T16:45:52.719Z,8.43
2023-02-01T16:48:23.959Z,8.50
2023-02-01T16:50:52.375Z,8.30
2023-02-01T16:53:19.788Z,8.21
2023-02-01T16:55:48.620Z,8.27
2023-02-01T16:58:16.526Z,8.34
2023-02-01T17:00:43.529Z,8.25
2023-02-01T17:03:11.087Z,8.25
2023-02-01T17:05:37.510Z,8.06
2023-02-01T17:08:06.578Z,8.19
2023-02-01T17:10:34.289Z,8.19
2023-02-01T17:13:01.261Z,8.09
2023-02-01T17:15:29.748Z,8.07
2023-02-01T17:17:57.636Z,8.25
2023-02-01T17:20:25.165Z,7.96
2023-02-01T17:22:53.010Z,7.89
2023-02-01T17:25:21.528Z,7.86
2023-02-01T17:27:48.676Z,8.02
2023-02-01T17:30:15.877Z,7.82
2023-02-01T17:32:42.536Z,7.88
2023-02-01T17:35:19.999Z,7.86
2023-02-01T17:37:46.508Z,7.77
2023-02-01T17:40:13.135Z,7.66
2023-02-01T17:42:39.644Z,7.62
2023-02-01T17:45:27.003Z,7.51
2023-02-01T17:47:53.591Z,7.40
2023-02-01T17:50:20.045Z,7.20
2023-02-01T17:52:46.464Z,6.74
2023-02-01T17:55:19.895Z,6.91
2023-02-01T17:57:46.695Z,6.74
2023-02-01T18:00:13.738Z,6.43
2023-02-01T18:02:40.288Z,6.41
2023-02-01T18:05:28.359Z,6.28
2023-02-01T18:07:54.801Z,5.98
2023-02-01T18:10:21.267Z,5.89
2023-02-01T18:12:47.829Z,5.67
2023-02-01T18:15:14.299Z,5.75
2023-02-01T18:17:40.765Z,5.64
2023-02-01T18:20:07.489Z,5.61
2023-02-01T18:22:33.924Z,5.65
2023-02-01T18:25:00.387Z,5.63
2023-02-01T18:27:28.089Z,5.39
2023-02-01T18:29:54.681Z,5.57
2023-02-01T18:32:21.095Z,5.24
2023-02-01T18:34:47.503Z,5.03
2023-02-01T18:37:14.075Z,5.12
2023-02-01T18:39:40.571Z,4.96
2023-02-01T18:42:10.180Z,4.89
2023-02-01T18:44:36.819Z,4.58
2023-02-01T18:47:03.256Z,4.51
2023-02-01T18:49:29.690Z,4.20
2023-02-01T18:51:56.136Z,4.70
2023-02-01T18:54:24.602Z,4.08
2023-02-01T18:56:51.013Z,3.80
2023-02-01T18:59:18.639Z,4.02
2023-02-01T19:01:45.235Z,3.85
2023-02-01T19:04:17.423Z,3.70
2023-02-01T19:06:46.385Z,3.64
2023-02-01T19:09:12.799Z,3.72
2023-02-01T19:11:39.263Z,3.47
2023-02-01T19:14:06.963Z,3.52
2023-02-01T19:16:36.009Z,3.44
2023-02-01T19:19:02.423Z,3.12
2023-02-01T19:21:29.027Z,3.52
2023-02-01T19:23:55.507Z,3.43
2023-02-01T19:26:22.412Z,3.49
2023-02-01T19:28:49.083Z,3.22
2023-02-01T19:31:16.712Z,3.27
2023-02-01T19:33:43.606Z,3.16
2023-02-01T19:36:10.901Z,3.30
2023-02-01T19:38:37.912Z,3.37
2023-02-01T19:41:04.441Z,3.45
2023-02-01T19:43:30.909Z,3.46
2023-02-01T19:45:57.488Z,3.16
2023-02-01T19:48:24.514Z,3.23
2023-02-01T19:50:51.288Z,3.61
2023-02-01T19:53:19.307Z,3.93
2023-02-01T19:55:46.038Z,4.04
2023-02-01T19:58:12.551Z,4.28
2023-02-01T20:00:38.135Z,4.46
2023-02-01T20:03:04.728Z,4.70
2023-02-01T20:05:31.243Z,4.94
2023-02-01T20:07:57.684Z,5.16
2023-02-01T20:10:24.344Z,5.29
2023-02-01T20:12:50.775Z,5.45
2023-02-01T20:15:17.367Z,5.46
2023-02-01T20:17:44.631Z,5.52
2023-02-01T20:20:11.253Z,5.64
2023-02-01T20:22:37.674Z,5.67
2023-02-01T20:25:04.339Z,5.79
2023-02-01T20:27:31.662Z,5.91
2023-02-01T20:29:58.144Z,6.04
2023-02-01T20:32:24.666Z,5.86
2023-02-01T20:34:54.226Z,5.88
2023-02-01T20:37:20.987Z,5.94
2023-02-01T20:39:47.407Z,6.02
2023-02-01T20:42:13.924Z,5.87
2023-02-01T20:44:40.384Z,5.67
2023-02-01T20:47:06.787Z,5.43
2023-02-01T20:49:34.626Z,5.38
2023-02-01T20:52:01.083Z,5.12
2023-02-01T20:54:27.602Z,5.00
2023-02-01T20:56:54.162Z,4.87
2023-02-01T20:59:20.726Z,4.91
2023-02-01T21:01:53.417Z,4.93
2023-02-01T21:04:23.941Z,4.93
2023-02-01T21:06:50.390Z,4.73
2023-02-01T21:09:17.068Z,4.54
2023-02-01T21:11:44.192Z,4.37
2023-02-01T21:14:11.169Z,4.02
2023-02-01T21:16:37.810Z,3.96
2023-02-01T21:19:04.697Z,3.98
2023-02-01T21:21:31.472Z,3.89
2023-02-01T21:23:58.296Z,3.78
2023-02-01T21:26:25.670Z,3.56
2023-02-01T21:28:52.937Z,3.39
2023-02-01T21:31:22.001Z,3.59
2023-02-01T21:33:49.133Z,3.02
2023-02-01T21:36:19.499Z,3.30
2023-02-01T21:38:46.940Z,3.31
2023-02-01T21:41:31.918Z,3.35
2023-02-01T21:43:58.412Z,3.31
2023-02-01T21:46:24.838Z,3.18
2023-02-01T21:49:05.325Z,3.39
2023-02-01T21:51:35.035Z,3.42
2023-02-01T21:54:02.020Z,3.41
2023-02-01T21:56:28.582Z,3.30
2023-02-01T21:58:55.302Z,3.32
2023-02-01T22:01:21.974Z,3.06
2023-02-01T22:03:49.251Z,3.13
2023-02-01T22:06:24.567Z,3.07
2023-02-01T22:08:51.075Z,3.22
2023-02-01T22:11:17.563Z,3.33
2023-02-01T22:13:43.976Z,3.46
2023-02-01T22:16:10.489Z,3.47
2023-02-01T22:18:36.991Z,3.46
2023-02-01T22:21:03.519Z,3.33
2023-02-01T22:23:29.922Z,3.31
2023-02-01T22:26:00.269Z,3.20
2023-02-01T22:28:32.150Z,3.30
2023-02-01T22:31:04.355Z,3.32
2023-02-01T22:33:31.087Z,3.31
2023-02-01T22:35:57.500Z,3.16
2023-02-01T22:38:24.249Z,3.17
2023-02-01T22:41:00.819Z,3.23
2023-02-01T22:43:27.654Z,3.35
2023-02-01T22:45:54.566Z,3.01
2023-02-01T22:48:21.264Z,3.01
2023-02-01T22:50:47.727Z,3.21
2023-02-01T22:53:14.169Z,3.25
2023-02-01T22:55:45.431Z,3.20
2023-02-01T22:58:12.723Z,3.26
2023-02-01T23:00:39.445Z,3.12
2023-02-01T23:03:08.881Z,3.15
2023-02-01T23:05:35.369Z,3.13
2023-02-01T23:08:02.092Z,2.99
2023-02-01T23:10:28.518Z,3.08
2023-02-01T23:12:54.954Z,3.01
2023-02-01T23:15:21.618Z,3.05
2023-02-01T23:17:48.250Z,2.97
2023-02-01T23:20:16.444Z,3.04
2023-02-01T23:22:43.611Z,3.02
2023-02-01T23:25:11.162Z,3.19
2023-02-01T23:27:37.610Z,3.06
2023-02-01T23:30:05.751Z,3.23
2023-02-01T23:32:33.399Z,2.97
2023-02-01T23:35:00.263Z,3.51
2023-02-01T23:37:27.187Z,3.04
2023-02-01T23:39:53.654Z,2.86
2023-02-01T23:42:20.406Z,3.00
2023-02-01T23:44:46.871Z,2.84
2023-02-01T23:47:13.333Z,2.79
2023-02-01T23:49:39.862Z,2.59
2023-02-01T23:52:06.787Z,2.81
2023-02-01T23:54:33.298Z,2.93
2023-02-01T23:56:59.821Z,2.77
2023-02-01T23:59:30.574Z,2.97
